createdAt,value
2022-12-15T00:06:54.683Z,98545.03
2022-12-15T00:16:27.920Z,98541.22
2022-12-15T00:26:00.877Z,98528.44
2022-12-15T00:35:34.182Z,98557.33
2022-12-15T00:45:07.363Z,98561.48
2022-12-15T00:54:40.419Z,98563.05
2022-12-15T01:04:15.342Z,98585.11
2022-12-15T01:13:49.636Z,98600.66
2022-12-15T01:23:19.673Z,98602.39
2022-12-15T01:32:54.349Z,98618.41
2022-12-15T01:42:27.266Z,98636.30
2022-12-15T01:51:58.581Z,98638.61
2022-12-15T02:01:31.461Z,98640.75
2022-12-15T02:11:04.376Z,98652.23
2022-12-15T02:20:37.221Z,98649.50
2022-12-15T02:30:11.728Z,98645.65
2022-12-15T02:39:42.724Z,98648.64
2022-12-15T02:49:15.374Z,98655.27
2022-12-15T02:58:50.795Z,98662.97
2022-12-15T03:08:20.525Z,98669.16
2022-12-15T03:17:54.953Z,98691.13
2022-12-15T03:27:28.011Z,98703.05
2022-12-15T03:36:59.254Z,98698.13
2022-12-15T03:46:32.150Z,98714.03
2022-12-15T03:56:04.840Z,98725.01
2022-12-15T04:05:37.932Z,98720.81
2022-12-15T04:15:12.429Z,98734.68
2022-12-15T04:24:43.569Z,98728.86
2022-12-15T04:34:16.645Z,98733.28
2022-12-15T04:43:49.650Z,98720.34
2022-12-15T04:53:22.844Z,98737.54
2022-12-15T05:02:55.861Z,98756.69
2022-12-15T05:12:28.350Z,98749.80
2022-12-15T05:22:01.255Z,98764.22
2022-12-15T05:31:34.090Z,98761.86
2022-12-15T05:41:06.640Z,98754.84
2022-12-15T05:50:39.352Z,98765.31
2022-12-15T06:00:12.464Z,98784.18
2022-12-15T06:09:46.324Z,98793.90
2022-12-15T06:19:18.391Z,98813.25
2022-12-15T06:28:51.053Z,98821.22
2022-12-15T06:38:23.687Z,98840.61
2022-12-15T06:48:01.600Z,98833.30
2022-12-15T06:57:30.010Z,98847.81
2022-12-15T07:07:02.811Z,98848.16
2022-12-15T07:16:35.727Z,98846.02
2022-12-15T07:26:11.569Z,98841.40
2022-12-15T07:35:42.274Z,98846.48
2022-12-15T07:45:16.157Z,98864.44
2022-12-15T07:54:49.612Z,98864.84
2022-12-15T08:04:24.799Z,98868.89
2022-12-15T08:14:04.897Z,98885.31
2022-12-15T08:23:29.357Z,98870.51
2022-12-15T08:33:02.358Z,98878.72
2022-12-15T08:42:36.044Z,98893.80
2022-12-15T08:52:11.335Z,98895.77
2022-12-15T09:01:44.646Z,98909.69
2022-12-15T09:11:16.179Z,98944.89
2022-12-15T09:20:49.582Z,98947.30
2022-12-15T09:30:22.687Z,98949.34
2022-12-15T09:39:55.797Z,98958.89
2022-12-15T09:49:29.238Z,98973.70
2022-12-15T09:59:02.878Z,98973.14
2022-12-15T10:08:36.281Z,98981.56
2022-12-15T10:18:11.077Z,98969.30
2022-12-15T10:27:42.104Z,98956.24
2022-12-15T10:37:15.997Z,98942.91
2022-12-15T10:46:49.714Z,98947.29
2022-12-15T10:56:30.869Z,98945.22
2022-12-15T11:05:57.936Z,98944.26
2022-12-15T11:15:29.242Z,98924.61
2022-12-15T11:25:04.384Z,98919.69
2022-12-15T11:34:36.298Z,98898.72
2022-12-15T11:44:09.294Z,98882.28
2022-12-15T11:53:44.278Z,98867.78
2022-12-15T12:03:16.890Z,98878.63
2022-12-15T12:12:50.453Z,98849.95
2022-12-15T12:22:22.697Z,98837.00
2022-12-15T12:32:02.149Z,98819.34
2022-12-15T12:41:31.874Z,98801.12
2022-12-15T12:51:02.367Z,98810.13
2022-12-15T13:00:37.304Z,98803.02
2022-12-15T13:10:08.777Z,98789.45
2022-12-15T13:11:12.783Z,98785.31
2022-12-15T13:20:43.654Z,98764.02
2022-12-15T13:21:48.626Z,98760.57
2022-12-15T13:22:50.476Z,98756.02
2022-12-15T13:32:21.182Z,98742.98
2022-12-15T13:33:23.532Z,98743.27
2022-12-15T13:42:58.243Z,98715.70
2022-12-15T13:52:44.496Z,98710.83
2022-12-15T14:02:01.361Z,98727.33
2022-12-15T14:03:03.817Z,98723.84
2022-12-15T14:04:07.762Z,98726.95
2022-12-15T14:05:10.005Z,98722.86
2022-12-15T14:06:14.034Z,98728.95
2022-12-15T14:07:16.353Z,98727.30
2022-12-15T14:08:18.707Z,98723.11
2022-12-15T14:09:21.123Z,98724.75
2022-12-15T14:18:52.836Z,98727.25
2022-12-15T14:19:55.292Z,98732.97
2022-12-15T14:20:57.628Z,98728.89
2022-12-15T14:21:59.964Z,98738.19
2022-12-15T14:31:31.669Z,98762.91
2022-12-15T14:41:04.250Z,98759.48
2022-12-15T14:50:38.712Z,98774.58
2022-12-15T15:00:11.715Z,98773.88
2022-12-15T15:01:15.559Z,98776.30
2022-12-15T15:10:45.492Z,98782.88
2022-12-15T15:20:20.132Z,98787.13
2022-12-15T15:29:51.183Z,98791.45
2022-12-15T15:39:24.714Z,98790.95
2022-12-15T15:48:57.937Z,98774.40
2022-12-15T15:58:31.475Z,98782.19
2022-12-15T16:08:05.280Z,98777.33
2022-12-15T16:17:41.012Z,98767.56
2022-12-15T16:27:09.385Z,98757.49
2022-12-15T16:36:44.324Z,98751.74
2022-12-15T16:46:15.769Z,98744.45
2022-12-15T16:55:48.540Z,98768.49
2022-12-15T17:05:21.181Z,98776.69
2022-12-15T17:14:54.308Z,98793.06
2022-12-15T17:24:29.168Z,98783.47
2022-12-15T17:34:02.154Z,98796.98
2022-12-15T17:43:35.839Z,98781.84
2022-12-15T17:53:06.295Z,98773.09
2022-12-15T18:02:40.586Z,98765.76
2022-12-15T18:12:13.062Z,98743.63
2022-12-15T18:21:45.563Z,98752.59
2022-12-15T18:31:16.268Z,98743.87
2022-12-15T18:40:49.101Z,98746.75
2022-12-15T18:50:23.171Z,98733.25
2022-12-15T18:59:53.574Z,98737.39
2022-12-15T19:09:25.973Z,98731.92
2022-12-15T19:18:59.548Z,98721.92
2022-12-15T19:28:30.768Z,98712.11
2022-12-15T19:38:04.955Z,98715.32
2022-12-15T19:47:35.666Z,98721.44
2022-12-15T19:57:08.168Z,98697.58
2022-12-15T20:06:40.986Z,98686.37
2022-12-15T20:16:13.765Z,98676.20
2022-12-15T20:25:46.415Z,98672.88
2022-12-15T20:35:20.622Z,98668.09
2022-12-15T20:44:51.863Z,98678.21
2022-12-15T20:54:24.392Z,98673.70
2022-12-15T21:03:57.357Z,98687.17
2022-12-15T21:13:31.085Z,98686.30
2022-12-15T21:23:04.671Z,98686.30
2022-12-15T21:32:36.179Z,98701.31
2022-12-15T21:42:09.278Z,98699.51
2022-12-15T21:51:43.661Z,98716.43
2022-12-15T22:01:14.666Z,98716.95
2022-12-15T22:10:47.728Z,98731.05
2022-12-15T22:20:22.453Z,98738.63
2022-12-15T22:29:53.549Z,98733.52
2022-12-15T22:39:26.260Z,98733.01
2022-12-15T22:48:58.867Z,98745.58
2022-12-15T22:58:33.237Z,98733.31
2022-12-15T23:08:03.348Z,98724.36
2022-12-15T23:17:36.348Z,98725.43
2022-12-15T23:27:09.173Z,98717.86
2022-12-15T23:36:41.670Z,98729.41
2022-12-15T23:46:14.106Z,98713.52
2022-12-15T23:55:46.204Z,98709.38
